createdAt,value
2018-04-26T00:02:30.204Z,18.42
2018-04-26T00:05:06.289Z,19.50
2018-04-26T00:07:42.014Z,16.23
2018-04-26T00:10:17.248Z,17.87
2018-04-26T00:12:54.914Z,16.55
2018-04-26T00:15:30.836Z,16.52
2018-04-26T00:18:06.241Z,17.15
2018-04-26T00:20:42.372Z,19.50
2018-04-26T00:23:18.544Z,16.50
2018-04-26T00:25:53.420Z,16.70
2018-04-26T00:28:30.956Z,15.77
2018-04-26T00:31:05.746Z,17.52
2018-04-26T00:33:40.887Z,16.20
2018-04-26T00:36:16.387Z,15.75
2018-04-26T00:38:51.560Z,14.52
2018-04-26T00:41:27.754Z,15.25
2018-04-26T00:44:03.818Z,16.73
2018-04-26T00:46:39.218Z,17.67
2018-04-26T00:49:16.384Z,16.30
2018-04-26T00:52:01.366Z,15.50
2018-04-26T00:54:39.866Z,14.70
2018-04-26T00:57:15.379Z,17.40
2018-04-26T00:59:51.156Z,16.65
2018-04-26T01:02:26.880Z,17.52
2018-04-26T01:05:02.406Z,15.23
2018-04-26T01:07:38.591Z,16.73
2018-04-26T01:10:13.399Z,17.75
2018-04-26T01:12:48.872Z,18.37
2018-04-26T01:15:25.976Z,17.33
2018-04-26T01:18:02.078Z,15.95
2018-04-26T01:20:37.153Z,19.37
2018-04-26T01:23:13.261Z,17.40
2018-04-26T01:25:48.989Z,17.95
2018-04-26T01:28:24.261Z,15.77
2018-04-26T01:30:59.439Z,17.92
2018-04-26T01:33:35.313Z,19.58
2018-04-26T01:36:11.071Z,16.27
2018-04-26T01:38:46.305Z,18.90
2018-04-26T01:41:21.648Z,18.52
2018-04-26T01:43:58.326Z,18.27
2018-04-26T01:46:34.841Z,18.48
2018-04-26T01:49:10.133Z,17.50
2018-04-26T01:51:45.347Z,18.05
2018-04-26T01:54:20.988Z,20.88
2018-04-26T01:56:57.557Z,19.55
2018-04-26T01:59:33.120Z,17.50
2018-04-26T02:02:08.745Z,19.45
2018-04-26T02:04:43.938Z,17.92
2018-04-26T02:07:19.352Z,18.75
2018-04-26T02:09:56.737Z,20.00
2018-04-26T02:12:34.182Z,18.20
2018-04-26T02:15:09.609Z,21.70
2018-04-26T02:17:47.204Z,20.12
2018-04-26T02:20:23.813Z,19.45
2018-04-26T02:23:00.734Z,19.77
2018-04-26T02:25:36.164Z,18.77
2018-04-26T02:28:11.329Z,20.30
2018-04-26T02:30:46.746Z,20.73
2018-04-26T02:33:22.609Z,21.20
2018-04-26T02:35:59.123Z,18.23
2018-04-26T02:38:34.181Z,19.02
2018-04-26T02:41:09.477Z,19.80
2018-04-26T02:43:44.672Z,18.58
2018-04-26T02:46:20.022Z,21.05
2018-04-26T02:48:55.204Z,21.02
2018-04-26T02:51:31.821Z,17.95
2018-04-26T02:54:07.036Z,20.23
2018-04-26T02:56:43.652Z,18.30
2018-04-26T02:59:19.740Z,19.27
2018-04-26T03:01:54.788Z,21.37
2018-04-26T03:04:31.624Z,19.33
2018-04-26T03:07:06.772Z,19.42
2018-04-26T03:09:42.709Z,18.67
2018-04-26T03:12:18.282Z,19.87
2018-04-26T03:14:54.783Z,19.37
2018-04-26T03:17:31.491Z,17.17
2018-04-26T03:20:06.862Z,19.67
2018-04-26T03:22:42.691Z,19.02
2018-04-26T03:25:18.155Z,17.65
2018-04-26T03:27:55.103Z,21.25
2018-04-26T03:30:30.294Z,21.60
2018-04-26T03:33:05.901Z,22.27
2018-04-26T03:35:41.864Z,21.37
2018-04-26T03:38:17.080Z,20.75
2018-04-26T03:40:53.348Z,20.33
2018-04-26T03:43:28.725Z,23.25
2018-04-26T03:46:04.184Z,21.15
2018-04-26T03:48:40.825Z,20.42
2018-04-26T03:51:16.793Z,21.25
2018-04-26T03:53:51.917Z,21.27
2018-04-26T03:56:27.140Z,22.02
2018-04-26T03:59:02.612Z,19.48
2018-04-26T04:01:50.387Z,22.52
2018-04-26T04:04:37.877Z,22.02
2018-04-26T04:07:13.680Z,21.35
2018-04-26T04:09:49.461Z,22.00
2018-04-26T04:12:26.229Z,21.95
2018-04-26T04:15:01.672Z,21.62
2018-04-26T04:17:38.176Z,21.37
2018-04-26T04:20:14.025Z,21.35
2018-04-26T04:22:49.153Z,23.10
2018-04-26T04:25:25.428Z,19.42
2018-04-26T04:28:00.751Z,19.73
2018-04-26T04:30:36.183Z,21.35
2018-04-26T04:33:11.472Z,21.50
2018-04-26T04:35:47.686Z,19.95
2018-04-26T04:38:22.960Z,21.02
2018-04-26T04:40:59.601Z,24.45
2018-04-26T04:43:36.258Z,19.30
2018-04-26T04:46:11.610Z,24.42
2018-04-26T04:48:47.146Z,19.92
2018-04-26T04:51:23.105Z,21.98
2018-04-26T04:53:59.781Z,23.23
2018-04-26T04:56:37.514Z,20.75
2018-04-26T04:59:14.649Z,22.08
2018-04-26T05:01:49.923Z,20.00
2018-04-26T05:04:27.396Z,20.30
2018-04-26T05:07:04.060Z,21.87
2018-04-26T05:09:40.161Z,20.30
2018-04-26T05:12:16.796Z,17.30
2018-04-26T05:14:53.105Z,19.50
2018-04-26T05:17:28.772Z,21.08
2018-04-26T05:20:03.694Z,22.10
2018-04-26T05:22:38.898Z,19.05
2018-04-26T05:25:13.831Z,23.23
2018-04-26T05:27:49.108Z,23.12
2018-04-26T05:30:24.297Z,23.23
2018-04-26T05:33:01.028Z,23.60
2018-04-26T05:35:36.365Z,23.70
2018-04-26T05:38:11.582Z,21.52
2018-04-26T05:40:48.294Z,26.55
2018-04-26T05:43:24.329Z,25.77
2018-04-26T05:46:01.496Z,26.48
2018-04-26T05:48:37.303Z,21.58
2018-04-26T05:51:14.454Z,20.48
2018-04-26T05:53:49.660Z,23.62
2018-04-26T05:56:25.212Z,22.80
2018-04-26T05:59:00.440Z,22.90
2018-04-26T06:01:37.518Z,22.35
2018-04-26T06:04:13.159Z,21.92
2018-04-26T06:06:49.146Z,23.87
2018-04-26T06:09:25.772Z,21.10
2018-04-26T06:12:02.144Z,20.77
2018-04-26T06:14:37.955Z,21.10
2018-04-26T06:17:13.364Z,17.62
2018-04-26T06:19:50.229Z,18.20
2018-04-26T06:22:26.389Z,12.77
2018-04-26T06:25:03.745Z,13.40
2018-04-26T06:27:39.420Z,11.98
2018-04-26T06:30:15.737Z,10.82
2018-04-26T06:32:50.906Z,10.90
2018-04-26T06:35:28.507Z,14.10
2018-04-26T06:38:05.481Z,14.77
2018-04-26T06:40:40.784Z,14.07
2018-04-26T06:43:16.696Z,10.38
2018-04-26T06:45:53.776Z,11.52
2018-04-26T06:48:30.557Z,9.15
2018-04-26T06:51:07.096Z,10.80
2018-04-26T06:53:44.279Z,9.18
2018-04-26T06:56:20.644Z,10.23
2018-04-26T06:58:57.566Z,11.27
2018-04-26T07:01:33.789Z,11.15
2018-04-26T07:04:09.614Z,15.43
2018-04-26T07:06:44.896Z,12.23
2018-04-26T07:09:22.652Z,12.50
2018-04-26T07:11:59.581Z,12.52
2018-04-26T07:14:35.648Z,10.50
2018-04-26T07:17:11.853Z,15.27
2018-04-26T07:19:48.297Z,12.88
2018-04-26T07:22:24.743Z,13.93
2018-04-26T07:25:01.981Z,14.93
2018-04-26T07:27:38.888Z,15.43
2018-04-26T07:30:14.478Z,14.30
2018-04-26T07:32:50.728Z,12.63
2018-04-26T07:35:27.856Z,10.60
2018-04-26T07:38:04.242Z,10.60
2018-04-26T07:40:39.519Z,11.70
2018-04-26T07:43:16.648Z,11.70
2018-04-26T07:45:54.364Z,9.95
2018-04-26T07:48:30.730Z,8.47
2018-04-26T07:51:07.408Z,7.80
2018-04-26T07:53:43.308Z,9.23
2018-04-26T07:56:19.444Z,9.07
2018-04-26T07:58:55.797Z,16.27
2018-04-26T08:01:31.683Z,10.70
2018-04-26T08:04:09.454Z,8.67
2018-04-26T08:06:45.916Z,6.70
2018-04-26T08:09:22.575Z,6.93
2018-04-26T08:11:59.396Z,5.67
2018-04-26T08:14:36.246Z,3.97
2018-04-26T08:17:11.868Z,5.23
2018-04-26T08:19:46.822Z,5.70
2018-04-26T08:22:22.593Z,3.67
2018-04-26T08:25:00.768Z,3.83
2018-04-26T08:27:37.072Z,4.53
2018-04-26T08:30:13.504Z,3.73
2018-04-26T08:32:48.471Z,5.60
2018-04-26T08:35:25.589Z,3.27
2018-04-26T08:38:01.556Z,3.60
2018-04-26T08:40:37.122Z,5.33
2018-04-26T08:43:12.807Z,3.10
2018-04-26T08:45:49.228Z,5.83
2018-04-26T08:48:25.066Z,3.30
2018-04-26T08:51:01.534Z,5.20
2018-04-26T08:53:37.525Z,4.50
2018-04-26T08:56:13.612Z,3.40
2018-04-26T08:58:50.395Z,6.80
2018-04-26T09:01:26.868Z,3.07
2018-04-26T09:04:03.518Z,2.80
2018-04-26T09:06:40.088Z,5.57
2018-04-26T09:09:15.156Z,3.87
2018-04-26T09:11:50.968Z,9.00
2018-04-26T09:14:27.715Z,5.13
2018-04-26T09:17:04.498Z,5.57
2018-04-26T09:19:40.665Z,7.13
2018-04-26T09:22:17.369Z,5.13
2018-04-26T09:24:54.072Z,4.57
2018-04-26T09:27:31.294Z,5.47
2018-04-26T09:30:07.539Z,2.80
2018-04-26T09:32:43.824Z,3.27
2018-04-26T09:35:20.231Z,5.87
2018-04-26T09:37:55.124Z,7.07
2018-04-26T09:40:32.492Z,9.93
2018-04-26T09:43:09.246Z,4.93
2018-04-26T09:45:46.452Z,3.37
2018-04-26T09:48:22.989Z,3.47
2018-04-26T09:50:59.199Z,8.37
2018-04-26T09:53:36.265Z,7.47
2018-04-26T09:56:17.351Z,4.70
2018-04-26T09:58:54.357Z,5.50
2018-04-26T10:01:36.549Z,3.20
2018-04-26T10:04:14.442Z,3.60
2018-04-26T10:06:56.521Z,2.57
2018-04-26T10:09:32.884Z,3.73
2018-04-26T10:12:10.713Z,2.73
2018-04-26T10:14:46.829Z,4.83
2018-04-26T10:17:23.216Z,5.10
2018-04-26T10:20:05.704Z,2.03
2018-04-26T10:22:42.776Z,4.03
2018-04-26T10:25:19.103Z,4.47
2018-04-26T10:27:55.137Z,3.67
2018-04-26T10:30:32.984Z,3.90
2018-04-26T10:33:08.803Z,2.97
2018-04-26T10:35:44.569Z,3.77
2018-04-26T10:38:20.622Z,4.07
2018-04-26T10:40:56.948Z,3.13
2018-04-26T10:43:33.008Z,4.73
2018-04-26T10:46:08.738Z,2.10
2018-04-26T10:48:44.683Z,3.13
2018-04-26T10:51:20.887Z,3.27
2018-04-26T10:53:56.949Z,3.23
2018-04-26T10:56:33.745Z,4.57
2018-04-26T10:59:09.972Z,2.73
2018-04-26T11:01:46.313Z,4.30
2018-04-26T11:04:22.561Z,11.80
2018-04-26T11:06:58.441Z,1.40
2018-04-26T11:09:35.145Z,3.57
2018-04-26T11:12:11.180Z,3.80
2018-04-26T11:14:48.701Z,2.80
2018-04-26T11:17:24.675Z,3.63
2018-04-26T11:20:00.917Z,5.00
2018-04-26T11:22:38.309Z,2.87
2018-04-26T11:25:14.201Z,2.10
2018-04-26T11:27:50.569Z,3.70
2018-04-26T11:30:26.706Z,3.20
2018-04-26T11:33:03.026Z,4.30
2018-04-26T11:35:39.363Z,3.33
2018-04-26T11:38:16.413Z,3.50
2018-04-26T11:40:52.786Z,2.13
2018-04-26T11:43:29.550Z,4.20
2018-04-26T11:46:06.013Z,2.20
2018-04-26T11:48:43.156Z,3.03
2018-04-26T11:51:19.202Z,6.23
2018-04-26T11:53:56.101Z,3.07
2018-04-26T11:56:31.994Z,4.67
2018-04-26T11:59:08.372Z,1.37
2018-04-26T12:01:44.358Z,4.27
2018-04-26T12:04:21.279Z,5.17
2018-04-26T12:06:56.251Z,6.07
2018-04-26T12:09:32.094Z,5.37
2018-04-26T12:12:07.739Z,7.23
2018-04-26T12:14:43.325Z,4.70
2018-04-26T12:17:20.033Z,5.27
2018-04-26T12:19:56.165Z,2.33
2018-04-26T12:22:31.821Z,1.87
2018-04-26T12:25:09.637Z,1.50
2018-04-26T12:27:47.276Z,2.90
2018-04-26T12:30:23.358Z,2.12
2018-04-26T12:32:58.918Z,2.58
2018-04-26T12:35:34.788Z,2.77
2018-04-26T12:38:10.904Z,2.50
2018-04-26T12:40:47.305Z,1.43
2018-04-26T12:43:23.227Z,3.27
2018-04-26T12:46:00.337Z,2.87
2018-04-26T12:48:35.967Z,3.57
2018-04-26T12:51:12.478Z,5.07
2018-04-26T12:53:48.689Z,3.37
2018-04-26T12:56:24.472Z,2.23
2018-04-26T12:59:00.704Z,5.03
2018-04-26T13:01:36.995Z,2.40
2018-04-26T13:04:13.386Z,3.93
2018-04-26T13:06:50.805Z,4.47
2018-04-26T13:09:26.408Z,4.60
2018-04-26T13:12:02.269Z,9.97
2018-04-26T13:14:38.512Z,6.73
2018-04-26T13:17:14.775Z,8.27
2018-04-26T13:19:51.209Z,6.57
2018-04-26T13:22:27.507Z,5.20
2018-04-26T13:25:03.374Z,5.70
2018-04-26T13:27:39.912Z,5.53
2018-04-26T13:30:16.218Z,4.83
2018-04-26T13:32:52.071Z,4.67
2018-04-26T13:35:28.205Z,5.37
2018-04-26T13:38:03.987Z,6.13
2018-04-26T13:40:40.591Z,8.77
2018-04-26T13:43:15.796Z,8.13
2018-04-26T13:45:51.476Z,6.30
2018-04-26T13:48:27.300Z,8.10
2018-04-26T13:51:02.904Z,7.33
2018-04-26T13:53:39.050Z,7.10
2018-04-26T13:56:15.146Z,4.97
2018-04-26T13:58:50.139Z,4.33
2018-04-26T14:01:26.075Z,6.60
2018-04-26T14:04:03.909Z,5.07
2018-04-26T14:06:40.465Z,5.67
2018-04-26T14:09:17.289Z,7.83
2018-04-26T14:11:54.237Z,5.17
2018-04-26T14:14:29.080Z,4.13
2018-04-26T14:17:05.192Z,7.40
2018-04-26T14:19:41.564Z,4.27
2018-04-26T14:22:17.553Z,7.23
2018-04-26T14:24:53.947Z,4.90
2018-04-26T14:27:30.076Z,4.20
2018-04-26T14:30:04.575Z,3.20
2018-04-26T14:32:41.208Z,5.27
2018-04-26T14:35:18.399Z,2.60
2018-04-26T14:37:54.217Z,2.43
2018-04-26T14:40:32.257Z,2.83
2018-04-26T14:43:09.207Z,2.40
2018-04-26T14:45:48.395Z,4.83
2018-04-26T14:48:26.241Z,3.17
2018-04-26T14:51:13.074Z,2.23
2018-04-26T14:53:49.709Z,1.97
2018-04-26T14:56:28.354Z,2.07
2018-04-26T14:59:07.260Z,2.93
2018-04-26T15:04:24.533Z,4.70
2018-04-26T15:07:05.861Z,4.53
2018-04-26T15:09:43.536Z,2.13
2018-04-26T15:12:20.281Z,2.37
2018-04-26T15:14:56.456Z,2.47
2018-04-26T15:17:32.294Z,6.57
2018-04-26T15:20:08.048Z,2.00
2018-04-26T15:22:45.272Z,4.90
2018-04-26T15:25:20.284Z,2.37
2018-04-26T15:27:56.515Z,2.97
2018-04-26T15:30:32.218Z,3.53
2018-04-26T15:33:08.284Z,2.87
2018-04-26T15:35:45.157Z,2.60
2018-04-26T15:38:22.518Z,4.23
2018-04-26T15:40:58.364Z,6.63
2018-04-26T15:43:34.408Z,4.23
2018-04-26T15:46:09.567Z,2.87
2018-04-26T15:48:45.103Z,5.80
2018-04-26T15:51:21.769Z,4.70
2018-04-26T15:54:09.576Z,3.30
2018-04-26T15:57:06.867Z,2.93
2018-04-26T15:59:58.908Z,3.97
2018-04-26T16:03:07.630Z,3.40
2018-04-26T16:05:55.554Z,2.40
2018-04-26T16:11:53.068Z,2.87
2018-04-26T16:14:41.582Z,2.83
2018-04-26T16:17:34.671Z,3.90
2018-04-26T16:20:18.833Z,4.40
2018-04-26T16:23:26.179Z,2.47
2018-04-26T16:26:14.870Z,3.53
2018-04-26T16:29:24.970Z,3.62
2018-04-26T16:32:18.277Z,3.42
2018-04-26T16:35:11.440Z,2.85
2018-04-26T16:38:06.860Z,3.60
2018-04-26T16:40:42.668Z,5.68
2018-04-26T16:43:22.005Z,4.37
2018-04-26T16:45:58.519Z,4.15
2018-04-26T16:48:33.828Z,3.75
2018-04-26T16:51:13.699Z,4.25
2018-04-26T16:53:51.343Z,3.87
2018-04-26T16:56:31.373Z,3.87
2018-04-26T16:59:08.792Z,5.95
2018-04-26T17:01:48.402Z,3.45
2018-04-26T17:04:26.258Z,3.85
2018-04-26T17:07:03.255Z,3.37
2018-04-26T17:09:43.315Z,3.25
2018-04-26T17:12:25.609Z,4.78
2018-04-26T17:15:02.703Z,3.83
2018-04-26T17:17:39.418Z,4.40
2018-04-26T17:20:15.801Z,4.50
2018-04-26T17:22:58.660Z,4.55
2018-04-26T17:25:39.620Z,4.95
2018-04-26T17:28:16.419Z,3.40
2018-04-26T17:30:53.409Z,3.55
2018-04-26T17:33:29.388Z,6.28
2018-04-26T17:36:04.161Z,4.37
2018-04-26T17:38:39.990Z,7.05
2018-04-26T17:41:17.262Z,3.55
2018-04-26T17:43:53.274Z,3.42
2018-04-26T17:46:33.348Z,4.55
2018-04-26T17:49:10.267Z,3.60
2018-04-26T17:51:48.148Z,4.85
2018-04-26T17:54:30.597Z,6.03
2018-04-26T17:57:08.300Z,4.55
2018-04-26T17:59:44.306Z,4.72
2018-04-26T18:02:22.103Z,5.78
2018-04-26T18:05:03.341Z,4.50
2018-04-26T18:07:41.625Z,5.30
2018-04-26T18:10:25.088Z,6.12
2018-04-26T18:13:23.633Z,7.10
2018-04-26T18:16:00.301Z,4.20
2018-04-26T18:18:35.950Z,6.35
2018-04-26T18:21:12.907Z,4.22
2018-04-26T18:23:50.301Z,3.95
2018-04-26T18:26:26.350Z,4.10
2018-04-26T18:29:01.121Z,4.60
2018-04-26T18:31:38.838Z,4.12
2018-04-26T18:34:16.963Z,4.32
2018-04-26T18:36:50.505Z,5.97
2018-04-26T18:39:26.414Z,4.18
2018-04-26T18:42:03.292Z,5.12
2018-04-26T18:44:42.159Z,5.37
2018-04-26T18:47:17.545Z,4.00
2018-04-26T18:49:55.541Z,3.83
2018-04-26T18:52:30.833Z,3.75
2018-04-26T18:55:08.302Z,5.57
2018-04-26T18:57:44.165Z,4.45
2018-04-26T19:00:22.216Z,6.32
2018-04-26T19:03:01.379Z,5.40
2018-04-26T19:05:38.900Z,5.20
2018-04-26T19:08:15.408Z,4.15
2018-04-26T19:10:55.053Z,4.47
2018-04-26T19:13:34.528Z,4.15
2018-04-26T19:16:11.609Z,8.65
2018-04-26T19:18:49.826Z,4.28
2018-04-26T19:21:26.727Z,3.85
2018-04-26T19:24:05.667Z,4.70
2018-04-26T19:26:42.998Z,4.18
2018-04-26T19:29:25.237Z,4.40
2018-04-26T19:32:00.484Z,5.05
2018-04-26T19:34:36.525Z,4.82
2018-04-26T19:37:11.864Z,6.90
2018-04-26T19:39:49.865Z,6.70
2018-04-26T19:42:26.229Z,6.28
2018-04-26T19:45:03.129Z,8.05
2018-04-26T19:47:38.893Z,5.93
2018-04-26T19:50:15.755Z,5.55
2018-04-26T19:52:52.231Z,8.43
2018-04-26T19:55:29.113Z,8.18
2018-04-26T19:58:05.793Z,6.55
2018-04-26T20:00:42.540Z,7.43
2018-04-26T20:03:17.843Z,8.82
2018-04-26T20:05:54.547Z,7.97
2018-04-26T20:08:30.708Z,8.15
2018-04-26T20:11:08.533Z,7.85
2018-04-26T20:13:44.672Z,7.75
2018-04-26T20:16:22.277Z,8.63
2018-04-26T20:18:58.742Z,8.05
2018-04-26T20:21:36.698Z,7.12
2018-04-26T20:24:13.200Z,7.82
2018-04-26T20:26:53.497Z,8.13
2018-04-26T20:29:32.853Z,10.18
2018-04-26T20:32:09.625Z,7.25
2018-04-26T20:34:45.789Z,8.25
2018-04-26T20:37:22.287Z,9.38
2018-04-26T20:39:58.238Z,9.30
2018-04-26T20:42:33.510Z,14.23
2018-04-26T20:45:08.738Z,11.50
2018-04-26T20:47:44.006Z,12.43
2018-04-26T20:50:20.033Z,7.57
2018-04-26T20:52:56.589Z,10.80
2018-04-26T20:55:32.565Z,11.00
2018-04-26T20:58:09.238Z,13.00
2018-04-26T21:00:44.293Z,10.60
2018-04-26T21:03:19.521Z,7.70
2018-04-26T21:05:54.724Z,11.60
2018-04-26T21:08:30.784Z,8.32
2018-04-26T21:11:06.612Z,7.95
2018-04-26T21:13:42.333Z,10.60
2018-04-26T21:16:18.162Z,9.55
2018-04-26T21:18:53.884Z,8.27
2018-04-26T21:21:30.344Z,8.13
2018-04-26T21:24:06.618Z,8.23
2018-04-26T21:26:44.700Z,11.55
2018-04-26T21:29:21.202Z,8.43
2018-04-26T21:31:57.845Z,8.23
2018-04-26T21:34:33.895Z,9.57
2018-04-26T21:37:10.317Z,7.12
2018-04-26T21:39:46.774Z,8.60
2018-04-26T21:42:22.103Z,7.80
2018-04-26T21:44:57.394Z,9.32
2018-04-26T21:47:32.763Z,9.07
2018-04-26T21:50:13.465Z,7.78
2018-04-26T21:52:56.274Z,7.70
2018-04-26T21:55:37.780Z,8.80
2018-04-26T21:58:19.320Z,7.62
2018-04-26T22:01:01.544Z,8.93
2018-04-26T22:03:42.606Z,6.15
2018-04-26T22:06:18.628Z,7.25
2018-04-26T22:08:54.224Z,7.90
2018-04-26T22:11:34.586Z,7.10
2018-04-26T22:14:11.657Z,8.55
2018-04-26T22:16:50.051Z,7.62
2018-04-26T22:19:25.628Z,8.98
2018-04-26T22:22:01.182Z,8.85
2018-04-26T22:24:37.984Z,9.52
2018-04-26T22:27:15.573Z,9.43
2018-04-26T22:29:53.564Z,12.20
2018-04-26T22:32:31.480Z,7.53
2018-04-26T22:35:10.487Z,8.55
2018-04-26T22:37:53.796Z,10.32
2018-04-26T22:40:30.207Z,7.53
2018-04-26T22:43:06.340Z,9.63
2018-04-26T22:45:43.144Z,7.50
2018-04-26T22:48:18.610Z,10.73
2018-04-26T22:50:55.581Z,10.25
2018-04-26T22:53:30.818Z,12.27
2018-04-26T22:56:06.584Z,9.32
2018-04-26T22:58:43.072Z,10.55
2018-04-26T23:01:21.424Z,9.70
2018-04-26T23:03:57.353Z,15.38
2018-04-26T23:06:34.261Z,11.12
2018-04-26T23:09:11.015Z,8.90
2018-04-26T23:11:46.080Z,13.02
2018-04-26T23:14:21.516Z,9.50
2018-04-26T23:16:58.223Z,8.98
2018-04-26T23:19:33.719Z,12.00
2018-04-26T23:22:08.300Z,8.80
2018-04-26T23:24:44.756Z,10.40
2018-04-26T23:27:22.485Z,9.65
2018-04-26T23:29:58.525Z,8.38
2018-04-26T23:32:34.744Z,9.25
2018-04-26T23:35:11.902Z,12.75
2018-04-26T23:37:48.083Z,10.80
2018-04-26T23:40:23.992Z,9.55
2018-04-26T23:42:59.225Z,8.38
2018-04-26T23:45:34.404Z,9.75
2018-04-26T23:48:09.721Z,10.85
2018-04-26T23:50:45.689Z,10.70
2018-04-26T23:53:22.120Z,14.40
2018-04-26T23:55:58.245Z,10.85
2018-04-26T23:58:34.228Z,9.50
